createdAt,value
2017-09-22T00:02:10.048Z,16.90
2017-09-22T00:04:38.367Z,16.20
2017-09-22T00:07:06.682Z,17.90
2017-09-22T00:09:35.129Z,16.70
2017-09-22T00:12:03.444Z,17.63
2017-09-22T00:14:31.752Z,18.17
2017-09-22T00:17:00.080Z,16.47
2017-09-22T00:19:28.395Z,18.20
2017-09-22T00:21:56.724Z,16.27
2017-09-22T00:24:25.153Z,17.40
2017-09-22T00:26:54.243Z,17.97
2017-09-22T00:29:23.306Z,18.57
2017-09-22T00:31:51.634Z,19.73
2017-09-22T00:34:19.945Z,17.33
2017-09-22T00:36:48.278Z,18.67
2017-09-22T00:39:16.578Z,17.90
2017-09-22T00:41:44.920Z,17.73
2017-09-22T00:44:13.661Z,19.00
2017-09-22T00:46:41.974Z,18.93
2017-09-22T00:49:11.086Z,17.83
2017-09-22T00:51:39.394Z,17.70
2017-09-22T00:54:07.726Z,18.97
2017-09-22T00:56:36.797Z,17.50
2017-09-22T00:59:05.128Z,16.60
2017-09-22T01:01:33.460Z,18.93
2017-09-22T01:04:02.156Z,19.60
2017-09-22T01:06:31.233Z,20.80
2017-09-22T01:09:00.330Z,19.50
2017-09-22T01:11:28.688Z,19.23
2017-09-22T01:13:57.113Z,17.87
2017-09-22T01:16:26.206Z,18.90
2017-09-22T01:18:54.522Z,21.13
2017-09-22T01:21:22.864Z,17.47
2017-09-22T01:23:51.189Z,19.80
2017-09-22T01:26:19.551Z,21.80
2017-09-22T01:28:47.875Z,21.00
2017-09-22T01:31:16.971Z,23.13
2017-09-22T01:33:46.053Z,20.60
2017-09-22T01:36:15.266Z,20.60
2017-09-22T01:38:44.338Z,18.10
2017-09-22T01:41:12.651Z,19.33
2017-09-22T01:43:41.737Z,19.30
2017-09-22T01:46:10.803Z,18.60
2017-09-22T01:48:39.142Z,19.50
2017-09-22T01:51:07.445Z,19.47
2017-09-22T01:53:35.764Z,17.90
2017-09-22T01:56:04.075Z,18.93
2017-09-22T01:58:32.411Z,19.43
2017-09-22T02:01:00.755Z,21.90
2017-09-22T02:03:29.406Z,20.73
2017-09-22T02:05:57.711Z,21.13
2017-09-22T02:08:26.010Z,22.20
2017-09-22T02:10:55.137Z,22.87
2017-09-22T02:13:24.196Z,23.10
2017-09-22T02:15:52.527Z,19.80
2017-09-22T02:18:20.843Z,21.90
2017-09-22T02:20:49.168Z,20.17
2017-09-22T02:23:17.488Z,20.30
2017-09-22T02:25:45.853Z,18.77
2017-09-22T02:28:14.163Z,20.90
2017-09-22T02:30:42.601Z,20.10
2017-09-22T02:33:10.910Z,20.73
2017-09-22T02:35:39.222Z,20.17
2017-09-22T02:38:08.296Z,21.77
2017-09-22T02:40:37.383Z,23.53
2017-09-22T02:43:05.715Z,23.40
2017-09-22T02:45:34.030Z,22.13
2017-09-22T02:48:02.363Z,20.13
2017-09-22T02:50:30.669Z,20.97
2017-09-22T02:52:59.794Z,21.47
2017-09-22T02:55:28.870Z,20.50
2017-09-22T02:57:57.319Z,20.40
2017-09-22T03:00:25.611Z,20.00
2017-09-22T03:02:53.923Z,19.87
2017-09-22T03:05:23.043Z,21.70
2017-09-22T03:07:51.350Z,19.73
2017-09-22T03:10:19.687Z,19.63
2017-09-22T03:12:48.000Z,19.90
2017-09-22T03:15:16.341Z,19.00
2017-09-22T03:17:44.651Z,20.60
2017-09-22T03:20:12.982Z,19.40
2017-09-22T03:22:42.058Z,20.33
2017-09-22T03:25:10.528Z,18.27
2017-09-22T03:27:38.838Z,20.33
2017-09-22T03:30:07.171Z,17.50
2017-09-22T03:32:35.498Z,19.30
2017-09-22T03:35:03.819Z,21.20
2017-09-22T03:37:32.143Z,18.80
2017-09-22T03:40:01.216Z,18.50
2017-09-22T03:42:29.537Z,18.73
2017-09-22T03:44:57.836Z,18.33
2017-09-22T03:47:26.172Z,20.43
2017-09-22T03:49:54.483Z,19.43
2017-09-22T03:52:23.691Z,20.70
2017-09-22T03:54:51.989Z,18.97
2017-09-22T03:57:20.301Z,20.63
2017-09-22T03:59:48.644Z,21.20
2017-09-22T04:02:16.950Z,21.73
2017-09-22T04:04:46.050Z,21.10
2017-09-22T04:07:14.356Z,20.70
2017-09-22T04:09:42.688Z,19.07
2017-09-22T04:12:10.979Z,19.87
2017-09-22T04:14:39.326Z,22.77
2017-09-22T04:17:07.643Z,20.57
2017-09-22T04:19:35.972Z,20.60
2017-09-22T04:22:04.290Z,21.07
2017-09-22T04:24:32.931Z,21.50
2017-09-22T04:27:01.250Z,21.90
2017-09-22T04:29:29.561Z,22.10
2017-09-22T04:31:57.887Z,20.57
2017-09-22T04:34:27.094Z,21.30
2017-09-22T04:36:56.182Z,20.47
2017-09-22T04:39:25.255Z,21.83
2017-09-22T04:41:54.365Z,22.43
2017-09-22T04:44:23.432Z,23.20
2017-09-22T04:46:52.055Z,20.53
2017-09-22T04:49:21.119Z,21.10
2017-09-22T04:51:49.433Z,22.10
2017-09-22T04:54:17.771Z,20.40
2017-09-22T04:56:46.079Z,20.77
2017-09-22T04:59:14.452Z,20.47
2017-09-22T05:01:43.769Z,19.83
2017-09-22T05:04:12.106Z,18.23
2017-09-22T05:06:41.197Z,19.20
2017-09-22T05:09:09.517Z,19.23
2017-09-22T05:11:37.828Z,19.77
2017-09-22T05:14:06.459Z,20.50
2017-09-22T05:16:35.534Z,20.10
2017-09-22T05:19:03.841Z,19.63
2017-09-22T05:21:32.927Z,21.57
2017-09-22T05:24:01.987Z,20.87
2017-09-22T05:26:30.336Z,22.67
2017-09-22T05:28:58.647Z,23.57
2017-09-22T05:31:26.987Z,21.77
2017-09-22T05:33:55.363Z,24.07
2017-09-22T05:36:23.699Z,22.83
2017-09-22T05:38:52.784Z,24.30
2017-09-22T05:41:21.107Z,23.37
2017-09-22T05:43:49.534Z,22.57
2017-09-22T05:46:18.759Z,21.23
2017-09-22T05:48:47.077Z,20.40
2017-09-22T05:51:15.395Z,21.70
2017-09-22T05:53:43.727Z,22.00
2017-09-22T05:56:12.063Z,20.10
2017-09-22T05:58:41.175Z,21.17
2017-09-22T06:01:10.243Z,23.40
2017-09-22T06:03:38.555Z,22.53
2017-09-22T06:06:06.887Z,20.57
2017-09-22T06:08:36.267Z,24.93
2017-09-22T06:11:04.603Z,22.50
2017-09-22T06:13:32.910Z,24.33
2017-09-22T06:16:01.238Z,21.83
2017-09-22T06:18:30.309Z,22.20
2017-09-22T06:20:58.645Z,21.77
2017-09-22T06:23:26.997Z,21.67
2017-09-22T06:25:55.327Z,19.67
2017-09-22T06:28:23.628Z,20.27
2017-09-22T06:30:52.830Z,20.00
2017-09-22T06:33:21.929Z,18.77
2017-09-22T06:35:51.031Z,19.63
2017-09-22T06:38:19.386Z,20.40
2017-09-22T06:40:47.689Z,18.80
2017-09-22T06:43:16.370Z,19.23
2017-09-22T06:45:44.662Z,18.17
2017-09-22T06:48:12.994Z,19.00
2017-09-22T06:50:41.305Z,19.87
2017-09-22T06:53:09.647Z,19.07
2017-09-22T06:55:37.963Z,18.63
2017-09-22T06:58:06.299Z,19.63
2017-09-22T07:00:35.402Z,19.40
2017-09-22T07:03:03.714Z,18.77
2017-09-22T07:05:33.649Z,18.53
2017-09-22T07:08:02.214Z,20.80
2017-09-22T07:10:30.555Z,20.10
2017-09-22T07:12:58.853Z,20.20
2017-09-22T07:15:27.935Z,21.03
2017-09-22T07:17:56.238Z,17.53
2017-09-22T07:20:24.564Z,19.23
2017-09-22T07:22:52.887Z,19.27
2017-09-22T07:25:21.403Z,19.37
2017-09-22T07:27:49.708Z,17.73
2017-09-22T07:30:18.814Z,19.53
2017-09-22T07:32:47.930Z,20.50
2017-09-22T07:35:16.242Z,18.20
2017-09-22T07:37:44.579Z,17.70
2017-09-22T07:40:12.958Z,20.80
2017-09-22T07:42:42.059Z,19.27
2017-09-22T07:45:11.126Z,21.33
2017-09-22T07:47:40.329Z,19.07
2017-09-22T07:50:08.662Z,22.63
2017-09-22T07:52:36.962Z,21.53
2017-09-22T07:55:05.311Z,20.77
2017-09-22T07:57:33.630Z,20.07
2017-09-22T08:00:01.963Z,26.53
2017-09-22T08:02:30.306Z,24.60
2017-09-22T08:04:59.382Z,23.07
2017-09-22T08:07:28.461Z,21.37
2017-09-22T08:09:56.793Z,19.90
2017-09-22T08:12:25.114Z,23.03
2017-09-22T08:14:53.438Z,24.03
2017-09-22T08:17:21.759Z,23.77
2017-09-22T08:19:50.086Z,23.47
2017-09-22T08:22:18.398Z,22.73
2017-09-22T08:24:46.742Z,22.43
2017-09-22T08:27:15.041Z,21.50
2017-09-22T08:29:43.367Z,24.63
2017-09-22T08:32:12.463Z,26.00
2017-09-22T08:34:41.531Z,29.77
2017-09-22T08:37:09.872Z,24.60
2017-09-22T08:39:38.206Z,27.07
2017-09-22T08:42:06.527Z,23.83
2017-09-22T08:44:34.851Z,25.10
2017-09-22T08:47:03.182Z,26.47
2017-09-22T08:49:31.492Z,24.83
2017-09-22T08:52:00.216Z,22.93
2017-09-22T08:54:29.290Z,21.40
2017-09-22T08:56:58.366Z,21.53
2017-09-22T08:59:26.708Z,20.07
2017-09-22T09:01:55.025Z,21.40
2017-09-22T09:04:24.146Z,22.50
2017-09-22T09:06:53.219Z,21.63
2017-09-22T09:09:21.542Z,19.17
2017-09-22T09:11:49.850Z,20.00
2017-09-22T09:14:18.177Z,22.93
2017-09-22T09:16:46.492Z,20.17
2017-09-22T09:19:14.792Z,22.50
2017-09-22T09:21:43.105Z,23.43
2017-09-22T09:24:11.683Z,20.87
2017-09-22T09:26:40.003Z,20.83
2017-09-22T09:29:08.319Z,20.63
2017-09-22T09:31:37.446Z,19.83
2017-09-22T09:34:05.778Z,19.60
2017-09-22T09:36:34.183Z,19.20
2017-09-22T09:39:02.483Z,19.60
2017-09-22T09:41:30.975Z,19.73
2017-09-22T09:43:59.268Z,22.53
2017-09-22T09:46:27.599Z,19.93
2017-09-22T09:48:55.954Z,19.90
2017-09-22T09:51:25.087Z,19.83
2017-09-22T09:53:53.417Z,22.40
2017-09-22T09:56:21.727Z,20.50
2017-09-22T09:58:50.078Z,34.20
2017-09-22T10:01:18.384Z,19.97
2017-09-22T10:03:46.731Z,18.83
2017-09-22T10:06:15.027Z,18.50
2017-09-22T10:08:44.233Z,18.83
2017-09-22T10:11:13.305Z,21.23
2017-09-22T10:13:41.610Z,20.27
2017-09-22T10:16:09.947Z,17.50
2017-09-22T10:18:38.281Z,18.30
2017-09-22T10:21:06.614Z,19.87
2017-09-22T10:23:35.710Z,19.90
2017-09-22T10:26:04.043Z,17.67
2017-09-22T10:28:32.362Z,19.07
2017-09-22T10:31:01.884Z,20.10
2017-09-22T10:33:31.028Z,19.90
2017-09-22T10:35:59.331Z,20.80
2017-09-22T10:38:28.451Z,20.53
2017-09-22T10:40:57.525Z,20.03
2017-09-22T10:43:26.627Z,22.57
2017-09-22T10:45:55.706Z,21.33
2017-09-22T10:48:24.053Z,18.07
2017-09-22T10:50:52.500Z,22.07
2017-09-22T10:53:21.594Z,21.40
2017-09-22T10:55:50.067Z,20.80
2017-09-22T10:58:18.434Z,24.17
2017-09-22T11:00:46.771Z,22.80
2017-09-22T11:03:15.119Z,28.27
2017-09-22T11:05:43.447Z,23.77
2017-09-22T11:08:11.782Z,21.83
2017-09-22T11:10:40.089Z,21.20
2017-09-22T11:13:08.390Z,20.77
2017-09-22T11:15:37.518Z,20.70
2017-09-22T11:18:05.890Z,25.17
2017-09-22T11:20:34.980Z,22.20
2017-09-22T11:23:03.422Z,22.40
2017-09-22T11:25:32.552Z,20.60
2017-09-22T11:28:01.650Z,20.23
2017-09-22T11:30:29.959Z,25.23
2017-09-22T11:32:58.305Z,24.77
2017-09-22T11:35:27.441Z,25.03
2017-09-22T11:37:55.770Z,22.60
2017-09-22T11:40:24.088Z,20.27
2017-09-22T11:42:52.634Z,23.37
2017-09-22T11:45:20.899Z,22.60
2017-09-22T11:47:49.967Z,20.33
2017-09-22T11:50:18.312Z,28.77
2017-09-22T11:52:46.619Z,23.07
2017-09-22T11:55:14.956Z,22.57
2017-09-22T11:57:43.270Z,23.93
2017-09-22T12:00:11.699Z,20.30
2017-09-22T12:02:40.022Z,19.27
2017-09-22T12:05:08.334Z,19.03
2017-09-22T12:07:36.647Z,23.70
2017-09-22T12:10:04.997Z,20.57
2017-09-22T12:12:34.079Z,19.03
2017-09-22T12:15:03.154Z,17.30
2017-09-22T12:17:32.270Z,16.57
2017-09-22T12:20:00.555Z,17.63
2017-09-22T12:22:28.895Z,15.87
2017-09-22T12:24:57.213Z,16.30
2017-09-22T12:27:25.538Z,17.50
2017-09-22T12:29:53.870Z,17.07
2017-09-22T12:32:22.179Z,14.53
2017-09-22T12:34:50.503Z,13.67
2017-09-22T12:37:19.562Z,14.57
2017-09-22T12:39:47.898Z,14.10
2017-09-22T12:42:16.218Z,14.13
2017-09-22T12:44:44.541Z,12.10
2017-09-22T12:47:12.899Z,14.07
2017-09-22T12:49:41.199Z,17.10
2017-09-22T12:52:09.534Z,15.43
2017-09-22T12:54:37.844Z,13.07
2017-09-22T12:57:06.180Z,13.17
2017-09-22T12:59:34.482Z,15.13
2017-09-22T13:02:03.578Z,15.10
2017-09-22T13:04:32.672Z,14.73
2017-09-22T13:07:01.903Z,14.07
2017-09-22T13:09:30.216Z,10.90
2017-09-22T13:11:59.283Z,11.47
2017-09-22T13:14:27.589Z,11.63
2017-09-22T13:16:55.903Z,12.30
2017-09-22T13:19:24.992Z,9.50
2017-09-22T13:21:54.059Z,10.00
2017-09-22T13:24:22.382Z,10.87
2017-09-22T13:26:51.435Z,9.23
2017-09-22T13:29:19.765Z,10.60
2017-09-22T13:31:48.051Z,8.77
2017-09-22T13:34:16.604Z,16.47
2017-09-22T13:36:45.659Z,12.17
2017-09-22T13:39:13.958Z,17.13
2017-09-22T13:41:42.272Z,17.80
2017-09-22T13:44:10.624Z,19.33
2017-09-22T13:46:39.745Z,20.97
2017-09-22T13:49:08.056Z,20.00
2017-09-22T13:51:36.400Z,16.33
2017-09-22T13:54:04.701Z,17.80
2017-09-22T13:56:33.036Z,16.13
2017-09-22T13:59:01.643Z,13.90
2017-09-22T14:01:29.926Z,13.57
2017-09-22T14:03:58.295Z,12.67
2017-09-22T14:06:26.630Z,10.10
2017-09-22T14:08:55.022Z,11.73
2017-09-22T14:11:23.363Z,9.73
2017-09-22T14:13:51.998Z,10.50
2017-09-22T14:16:20.315Z,16.23
2017-09-22T14:18:48.671Z,15.10
2017-09-22T14:21:16.959Z,19.00
2017-09-22T14:23:45.259Z,9.60
2017-09-22T14:26:13.606Z,15.23
2017-09-22T14:28:43.522Z,18.63
2017-09-22T14:31:11.833Z,18.70
2017-09-22T14:33:40.926Z,12.30
2017-09-22T14:36:09.242Z,8.40
2017-09-22T14:38:37.556Z,16.33
2017-09-22T14:41:05.875Z,17.00
2017-09-22T14:43:34.946Z,14.20
2017-09-22T14:46:03.754Z,13.87
2017-09-22T14:48:32.109Z,13.53
2017-09-22T14:51:01.220Z,13.97
2017-09-22T14:53:30.322Z,14.93
2017-09-22T14:55:59.415Z,11.80
2017-09-22T14:58:28.511Z,13.87
2017-09-22T15:00:56.845Z,11.10
2017-09-22T15:03:25.196Z,9.83
2017-09-22T15:05:53.510Z,9.77
2017-09-22T15:08:21.924Z,10.50
2017-09-22T15:10:50.346Z,9.00
2017-09-22T15:13:18.801Z,12.07
2017-09-22T15:15:47.124Z,11.83
2017-09-22T15:18:15.446Z,11.57
2017-09-22T15:20:43.801Z,10.50
2017-09-22T15:23:12.879Z,12.87
2017-09-22T15:25:42.002Z,10.73
2017-09-22T15:28:10.306Z,13.53
2017-09-22T15:30:39.379Z,11.40
2017-09-22T15:33:07.698Z,11.80
2017-09-22T15:35:36.031Z,12.27
2017-09-22T15:38:05.091Z,10.53
2017-09-22T15:40:34.431Z,9.93
2017-09-22T15:43:02.721Z,8.77
2017-09-22T15:45:31.046Z,9.00
2017-09-22T15:47:59.479Z,10.87
2017-09-22T15:50:27.833Z,9.57
2017-09-22T15:52:56.182Z,11.20
2017-09-22T15:55:25.295Z,9.53
2017-09-22T15:57:54.393Z,17.13
2017-09-22T16:00:22.720Z,16.00
2017-09-22T16:02:51.276Z,9.30
2017-09-22T16:05:19.645Z,11.90
2017-09-22T16:07:48.727Z,10.73
2017-09-22T16:10:17.078Z,10.43
2017-09-22T16:12:45.388Z,10.93
2017-09-22T16:15:14.472Z,9.50
2017-09-22T16:17:43.551Z,9.30
2017-09-22T16:20:11.850Z,9.83
2017-09-22T16:22:40.139Z,9.40
2017-09-22T16:25:09.223Z,11.37
2017-09-22T16:27:37.552Z,10.10
2017-09-22T16:30:06.086Z,9.27
2017-09-22T16:32:35.159Z,8.80
2017-09-22T16:35:04.267Z,8.90
2017-09-22T16:37:33.371Z,8.67
2017-09-22T16:40:02.444Z,9.07
2017-09-22T16:42:30.764Z,10.50
2017-09-22T16:44:59.064Z,9.07
2017-09-22T16:47:27.386Z,8.63
2017-09-22T16:49:56.470Z,9.03
2017-09-22T16:52:26.283Z,9.50
2017-09-22T16:54:55.371Z,11.43
2017-09-22T16:57:23.696Z,9.70
2017-09-22T16:59:52.010Z,9.40
2017-09-22T17:02:20.335Z,9.93
2017-09-22T17:04:49.378Z,9.70
2017-09-22T17:07:17.895Z,9.57
2017-09-22T17:09:46.961Z,8.93
2017-09-22T17:12:15.266Z,11.93
2017-09-22T17:14:43.603Z,9.33
2017-09-22T17:17:11.906Z,13.00
2017-09-22T17:19:40.224Z,10.83
2017-09-22T17:22:08.521Z,11.17
2017-09-22T17:24:36.868Z,11.70
2017-09-22T17:27:05.225Z,11.57
2017-09-22T17:29:34.340Z,12.40
2017-09-22T17:32:02.659Z,11.47
2017-09-22T17:34:32.100Z,11.30
2017-09-22T17:37:00.418Z,11.70
2017-09-22T17:39:28.756Z,11.47
2017-09-22T17:41:57.133Z,12.10
2017-09-22T17:44:25.518Z,13.53
2017-09-22T17:46:53.855Z,13.43
2017-09-22T17:49:22.268Z,11.10
2017-09-22T17:51:50.628Z,12.37
2017-09-22T17:54:19.723Z,12.20
2017-09-22T17:56:48.132Z,15.13
2017-09-22T17:59:16.439Z,12.90
2017-09-22T18:01:44.754Z,15.57
2017-09-22T18:04:14.411Z,13.63
2017-09-22T18:06:42.718Z,13.43
2017-09-22T18:09:11.051Z,13.47
2017-09-22T18:11:39.373Z,14.77
2017-09-22T18:14:07.713Z,17.77
2017-09-22T18:16:36.050Z,16.90
2017-09-22T18:19:04.450Z,15.67
2017-09-22T18:21:32.779Z,16.57
2017-09-22T18:24:01.127Z,17.33
2017-09-22T18:26:29.431Z,16.60
2017-09-22T18:28:57.735Z,15.97
2017-09-22T18:31:26.846Z,15.30
2017-09-22T18:33:55.186Z,18.03
2017-09-22T18:36:23.522Z,17.53
2017-09-22T18:38:51.847Z,19.17
2017-09-22T18:41:20.958Z,17.17
2017-09-22T18:43:49.283Z,16.10
2017-09-22T18:46:17.634Z,15.97
2017-09-22T18:48:45.943Z,17.07
2017-09-22T18:51:14.399Z,16.83
2017-09-22T18:53:42.724Z,16.87
2017-09-22T18:56:11.061Z,16.10
2017-09-22T18:58:39.377Z,17.50
2017-09-22T19:01:08.450Z,17.10
2017-09-22T19:03:36.779Z,18.97
2017-09-22T19:06:05.114Z,17.00
2017-09-22T19:08:33.444Z,17.67
2017-09-22T19:11:01.798Z,16.53
2017-09-22T19:13:30.158Z,17.90
2017-09-22T19:15:58.489Z,18.60
2017-09-22T19:18:26.824Z,20.30
2017-09-22T19:20:55.921Z,17.27
2017-09-22T19:23:24.308Z,20.07
2017-09-22T19:25:52.617Z,15.83
2017-09-22T19:28:21.030Z,16.23
2017-09-22T19:30:49.366Z,16.43
2017-09-22T19:33:17.682Z,18.10
2017-09-22T19:35:46.023Z,20.40
2017-09-22T19:38:14.336Z,19.73
2017-09-22T19:40:42.677Z,16.93
2017-09-22T19:43:10.991Z,19.40
2017-09-22T19:45:39.614Z,19.73
2017-09-22T19:50:42.843Z,18.80
2017-09-22T19:53:11.159Z,19.73
2017-09-22T19:55:39.504Z,18.70
2017-09-22T19:58:08.970Z,18.70
2017-09-22T20:00:37.267Z,18.07
2017-09-22T20:03:06.363Z,19.03
2017-09-22T20:05:34.686Z,18.73
2017-09-22T20:08:03.032Z,21.30
2017-09-22T20:10:31.350Z,19.20
2017-09-22T20:12:59.748Z,19.40
2017-09-22T20:15:28.039Z,21.57
2017-09-22T20:17:56.389Z,18.73
2017-09-22T20:20:25.491Z,19.90
2017-09-22T20:22:53.907Z,19.70
2017-09-22T20:25:22.207Z,22.03
2017-09-22T20:27:50.550Z,20.03
2017-09-22T20:30:18.877Z,21.03
2017-09-22T20:32:47.341Z,22.10
2017-09-22T20:35:15.646Z,22.73
2017-09-22T20:37:43.960Z,21.53
2017-09-22T20:40:13.167Z,20.63
2017-09-22T20:42:41.468Z,20.23
2017-09-22T20:45:09.778Z,20.73
2017-09-22T20:47:38.090Z,23.30
2017-09-22T20:50:07.188Z,23.77
2017-09-22T20:52:35.500Z,22.97
2017-09-22T20:55:03.837Z,22.90
2017-09-22T20:57:32.160Z,24.83
2017-09-22T21:00:00.595Z,25.10
2017-09-22T21:02:28.909Z,23.83
2017-09-22T21:04:57.215Z,23.03
2017-09-22T21:07:25.544Z,21.83
2017-09-22T21:09:53.858Z,22.73
2017-09-22T21:12:22.972Z,24.87
2017-09-22T21:14:51.583Z,26.43
2017-09-22T21:17:19.916Z,24.70
2017-09-22T21:19:48.231Z,25.33
2017-09-22T21:22:16.566Z,25.70
2017-09-22T21:24:44.893Z,25.20
2017-09-22T21:27:13.338Z,26.27
2017-09-22T21:29:42.426Z,25.33
2017-09-22T21:32:10.742Z,25.87
2017-09-22T21:34:39.057Z,27.27
2017-09-22T21:37:07.394Z,24.83
2017-09-22T21:39:35.730Z,25.57
2017-09-22T21:42:04.809Z,24.47
2017-09-22T21:44:33.147Z,26.07
2017-09-22T21:47:01.464Z,24.97
2017-09-22T21:49:29.801Z,26.90
2017-09-22T21:51:58.116Z,25.33
2017-09-22T21:54:26.464Z,25.70
2017-09-22T21:56:54.782Z,38.40
2017-09-22T21:59:23.091Z,33.27
2017-09-22T22:01:51.433Z,27.93
2017-09-22T22:04:25.982Z,30.30
2017-09-22T22:06:59.936Z,25.10
2017-09-22T22:09:28.366Z,33.27
2017-09-22T22:11:57.439Z,32.77
2017-09-22T22:14:25.858Z,25.27
2017-09-22T22:16:54.246Z,27.07
2017-09-22T22:19:22.582Z,25.67
2017-09-22T22:21:50.984Z,23.60
2017-09-22T22:24:19.327Z,28.07
2017-09-22T22:26:47.760Z,30.53
2017-09-22T22:29:16.060Z,24.77
2017-09-22T22:31:44.495Z,25.80
2017-09-22T22:34:12.826Z,27.83
2017-09-22T22:36:41.139Z,29.53
2017-09-22T22:39:10.230Z,26.80
2017-09-22T22:41:38.520Z,25.97
2017-09-22T22:44:07.613Z,31.20
2017-09-22T22:46:36.678Z,22.30
2017-09-22T22:49:05.186Z,23.77
2017-09-22T22:51:34.258Z,23.60
2017-09-22T22:54:03.353Z,29.43
2017-09-22T22:56:31.702Z,27.60
2017-09-22T22:59:00.014Z,27.77
2017-09-22T23:01:29.134Z,27.20
2017-09-22T23:03:58.197Z,26.53
2017-09-22T23:06:26.523Z,25.80
2017-09-22T23:08:54.818Z,24.87
2017-09-22T23:11:23.162Z,24.50
2017-09-22T23:13:51.481Z,24.53
2017-09-22T23:16:19.809Z,25.00
2017-09-22T23:18:48.129Z,27.87
2017-09-22T23:21:16.461Z,25.30
2017-09-22T23:23:44.767Z,26.40
2017-09-22T23:26:13.218Z,25.63
2017-09-22T23:28:41.546Z,25.00
2017-09-22T23:31:09.849Z,27.00
2017-09-22T23:33:38.187Z,26.60
2017-09-22T23:36:06.496Z,29.53
2017-09-22T23:38:35.618Z,28.97
2017-09-22T23:41:04.776Z,27.50
2017-09-22T23:43:33.892Z,23.90
2017-09-22T23:46:02.979Z,25.33
2017-09-22T23:48:32.105Z,28.73
2017-09-22T23:51:01.176Z,27.50
2017-09-22T23:53:29.642Z,26.63
2017-09-22T23:55:57.949Z,27.60
2017-09-22T23:58:26.279Z,27.23
